Nearby METAR Reports

 

KMHT - Manchester, New Hampshire, USA
Distance from station: W 16mi, 26km
Updated: Sun, 16-Jun-2019 9:53pm EDT
Light rain, Overcast
Light rain, Overcast
 Wind from calm
Wind: Calm
Temperature: 66°F , 19°C
Dew Point: 64°F , 18°C
Humidity: 94%
Barometer: 29.81 inHg , 1009.5 hPa
Summary: Light rain
Clouds: Overcast
Visibility: 9 miles , 14 km
Cloud details: Mostly cloudy 2200 ft
Overcast 3800 ft
2019/06/17 01:53 KMHT 170153Z 00000KT 9SM -RA BKN022 OVC038 19/18 A2981 RMK AO2 RAB0054 SLP107 P0000 T01890183
KPSM - Portsmouth/Pease, New Hampshire, USA
Distance from station: ENE 17mi, 27km
Updated: Sun, 16-Jun-2019 9:56pm EDT
Light rain, Mist, Overcast
Light rain, Mist, Overcast
 Wind from calm
Wind: Calm
Temperature: 63°F , 17°C
Dew Point: 63°F , 17°C
Humidity: 100%
Barometer: 29.81 inHg , 1009.5 hPa
Summary: Light rain, Mist
Clouds: Overcast
Visibility: 4 miles , 6 km
Cloud details: Partly cloudy 300 ft
Overcast 3700 ft
2019/06/17 01:56 KPSM 170156Z 00000KT 4SM -RA BR SCT003 OVC037 17/17 A2981 RMK AO2A SLP097 P0000 T01720170 RVRNO $
 
KASH - Nashua/Boire Fld, New Hampshire, USA
Distance from station: WSW 24mi, 38km
Updated: Sun, 16-Jun-2019 9:56pm EDT
Light rain, Mist, Overcast
Light rain, Mist, Overcast
 Wind from calm
Wind: Calm
Temperature: 66°F , 19°C
Dew Point: 66°F , 19°C
Humidity: 100%
Barometer: 29.83 inHg , 1010.2 hPa
Summary: Light rain, Mist
Clouds: Overcast
Visibility: 3 miles , 5 km
Cloud details: Mostly cloudy 400 ft
Mostly cloudy 2500 ft
Overcast 11000 ft
2019/06/17 01:56 KASH 170156Z AUTO 00000KT 3SM -RA BR BKN004 BKN025 OVC110 19/19 A2983 RMK AO2 SLP111 P0001 T01890189
KDAW - Rochester, New Hampshire, USA
Distance from station: NNE 24mi, 39km
Updated: Sun, 16-Jun-2019 10:44pm EDT
Mist, Overcast
Mist, Overcast
 Wind from calm
Wind: Calm
Temperature: 64°F , 18°C
Dew Point: 63°F , 17°C
Humidity: 94%
Barometer: 29.82 inHg , 1009.8 hPa
Summary: Mist
Clouds: Overcast
Visibility: 1 3/4 miles , 2.8 km
Cloud details: Mostly cloudy 200 ft
Overcast 2000 ft
2019/06/17 02:44 KDAW 170244Z AUTO 00000KT 1 3/4SM BR BKN002 OVC020 18/17 A2982 RMK AO2 RAB03E37 P0000 T01830172